Time;durP1;ratioP1;P1;durP2;ratioP2;P2;SDS_P1;SDS_P2;PMS_P1;PMS_P2;Temp;Humidity;BMP_temperature;BMP_pressure;BME280_temperature;BME280_humidity;BME280_pressure;Samples;Min_cycle;Max_cycle;Signal;HPM_P1;HPM_P2
2024/04/08 00:01:11;;;;;;;14.65;3.67;;;10.40;99.90;;;;;;5054857;28;20174;-65
2024/04/08 00:03:37;;;;;;;14.23;3.20;;;10.40;99.90;;;;;;5055123;28;20055;-65
2024/04/08 00:06:03;;;;;;;18.92;3.50;;;10.40;99.90;;;;;;5038136;28;20043;-65
2024/04/08 00:08:29;;;;;;;21.00;4.07;;;10.40;99.90;;;;;;5055038;28;20053;-65
2024/04/08 00:10:55;;;;;;;21.15;3.10;;;10.50;99.90;;;;;;5054976;28;20425;-65
2024/04/08 00:13:20;;;;;;;18.38;3.78;;;10.40;99.90;;;;;;5054439;28;20087;-65
2024/04/08 00:15:46;;;;;;;21.70;3.55;;;10.50;99.90;;;;;;5054838;28;20490;-66
2024/04/08 00:18:13;;;;;;;17.55;2.83;;;10.40;99.90;;;;;;5054397;28;20379;-66
2024/04/08 00:20:38;;;;;;;19.20;3.03;;;10.40;99.90;;;;;;5054580;28;20033;-65
2024/04/08 00:23:04;;;;;;;20.25;3.63;;;10.40;99.90;;;;;;5054731;28;20063;-65
2024/04/08 00:25:30;;;;;;;19.20;3.30;;;10.40;99.90;;;;;;5037884;28;20045;-65
2024/04/08 00:27:56;;;;;;;14.60;3.00;;;10.40;99.90;;;;;;5054414;28;20041;-66
2024/04/08 00:30:21;;;;;;;17.92;5.15;;;10.40;99.90;;;;;;5054466;28;20037;-66
2024/04/08 00:32:47;;;;;;;27.23;3.45;;;10.30;99.90;;;;;;5054414;28;20049;-66
2024/04/08 00:35:13;;;;;;;22.60;3.70;;;10.30;99.90;;;;;;5054342;28;20045;-65
2024/04/08 00:37:39;;;;;;;23.00;3.85;;;10.30;99.90;;;;;;5054328;28;20048;-65
2024/04/08 00:40:04;;;;;;;17.20;3.90;;;10.30;99.90;;;;;;5053912;28;20094;-66
2024/04/08 00:42:30;;;;;;;23.70;3.67;;;10.30;99.90;;;;;;5053852;28;20047;-66
2024/04/08 00:44:56;;;;;;;16.40;3.58;;;10.30;99.90;;;;;;5054395;28;20041;-65
2024/04/08 00:47:22;;;;;;;20.88;4.00;;;10.30;99.90;;;;;;5053889;28;20049;-66
2024/04/08 00:49:48;;;;;;;21.67;3.50;;;10.30;99.90;;;;;;5054170;28;20056;-65
2024/04/08 00:52:13;;;;;;;18.33;3.50;;;10.30;99.90;;;;;;5053927;28;20068;-65
2024/04/08 00:54:39;;;;;;;20.83;4.38;;;10.30;99.90;;;;;;5053603;28;20047;-65
2024/04/08 00:57:05;;;;;;;15.25;2.97;;;10.40;99.90;;;;;;5053919;28;20045;-65
2024/04/08 00:59:31;;;;;;;17.80;3.72;;;10.40;99.90;;;;;;5053929;28;20084;-65
2024/04/08 01:01:57;;;;;;;23.45;3.85;;;10.40;99.90;;;;;;5053968;28;20162;-65
2024/04/08 01:04:22;;;;;;;22.13;3.67;;;10.40;99.90;;;;;;5070305;28;20085;-65
2024/04/08 01:06:48;;;;;;;22.55;3.42;;;10.50;99.90;;;;;;5053658;28;20064;-65
2024/04/08 01:09:14;;;;;;;26.25;3.90;;;10.50;99.90;;;;;;5053675;28;20044;-65
2024/04/08 01:11:40;;;;;;;26.55;3.70;;;10.50;99.90;;;;;;5053958;28;20052;-65
2024/04/08 01:14:06;;;;;;;15.57;3.65;;;10.50;99.90;;;;;;5053717;28;20044;-65
2024/04/08 01:16:32;;;;;;;25.00;3.58;;;10.50;99.90;;;;;;5052921;28;20040;-66
2024/04/08 01:18:57;;;;;;;18.73;3.55;;;10.50;99.90;;;;;;5053724;28;20124;-65
2024/04/08 01:21:23;;;;;;;17.35;3.28;;;10.50;99.90;;;;;;5053652;28;20374;-66
2024/04/08 01:23:49;;;;;;;17.70;3.17;;;10.40;99.90;;;;;;5053484;28;20037;-65
2024/04/08 01:26:17;;;;;;;15.10;2.58;;;10.40;99.90;;;;;;5053304;28;20548;-65
2024/04/08 01:28:43;;;;;;;17.05;3.22;;;10.40;99.90;;;;;;5053630;28;20041;-65
2024/04/08 01:31:08;;;;;;;17.80;3.28;;;10.40;99.90;;;;;;5053404;28;20457;-65
2024/04/08 01:33:34;;;;;;;21.27;4.13;;;10.40;99.90;;;;;;5053403;28;20068;-65
2024/04/08 01:36:00;;;;;;;20.80;3.30;;;10.40;99.90;;;;;;5053275;28;20383;-65
2024/04/08 01:38:26;;;;;;;18.30;3.15;;;10.40;99.90;;;;;;5053599;28;20040;-65
2024/04/08 01:40:51;;;;;;;19.48;3.80;;;10.40;99.90;;;;;;5053099;28;20040;-65
2024/04/08 01:43:17;;;;;;;20.02;3.40;;;10.40;99.90;;;;;;5052895;28;20485;-65
2024/04/08 01:45:43;;;;;;;17.33;2.78;;;10.40;99.90;;;;;;5053201;28;20045;-66
2024/04/08 01:48:09;;;;;;;20.50;3.00;;;10.40;99.90;;;;;;5053600;28;20037;-65
2024/04/08 01:50:34;;;;;;;19.20;2.95;;;10.40;99.90;;;;;;5052916;28;20123;-63
2024/04/08 01:53:00;;;;;;;27.45;3.95;;;10.40;99.90;;;;;;5052939;28;20128;-63
2024/04/08 01:55:26;;;;;;;14.82;2.80;;;10.40;99.90;;;;;;5052992;28;20063;-63
2024/04/08 01:57:52;;;;;;;18.63;3.13;;;10.40;99.90;;;;;;5052949;28;20045;-63
2024/04/08 02:00:18;;;;;;;18.77;3.53;;;10.30;99.90;;;;;;5069670;28;20475;-63
2024/04/08 02:02:44;;;;;;;18.60;3.85;;;10.30;99.90;;;;;;5052612;28;20040;-63
2024/04/08 02:05:09;;;;;;;18.80;3.20;;;10.30;99.90;;;;;;5052011;28;20037;-63
2024/04/08 02:07:35;;;;;;;23.40;3.83;;;10.40;99.90;;;;;;5052627;28;20036;-63
2024/04/08 02:10:01;;;;;;;18.85;3.80;;;10.40;99.90;;;;;;5052671;28;20047;-63
2024/04/08 02:12:27;;;;;;;16.13;3.08;;;10.40;99.90;;;;;;5052575;28;20045;-63
2024/04/08 02:14:52;;;;;;;15.52;3.10;;;10.40;99.90;;;;;;5052628;28;20045;-63
2024/04/08 02:17:18;;;;;;;18.17;3.78;;;10.40;99.90;;;;;;5052094;28;20088;-63
2024/04/08 02:19:45;;;;;;;19.63;3.55;;;10.40;99.90;;;;;;5052781;28;20045;-63
2024/04/08 02:22:10;;;;;;;16.98;3.47;;;10.40;99.90;;;;;;5052501;28;20071;-63
2024/04/08 02:24:37;;;;;;;14.25;2.72;;;10.40;99.90;;;;;;5052665;28;20382;-63
2024/04/08 02:27:03;;;;;;;18.17;3.15;;;10.40;99.90;;;;;;5068875;28;20540;-62
2024/04/08 02:29:29;;;;;;;15.95;3.38;;;10.40;99.90;;;;;;5052633;28;20041;-61
2024/04/08 02:31:55;;;;;;;20.83;3.35;;;10.40;99.90;;;;;;5052732;28;20053;-61
2024/04/08 02:34:20;;;;;;;21.52;3.80;;;10.40;99.90;;;;;;5052209;28;20041;-61
2024/04/08 02:36:46;;;;;;;18.90;3.42;;;10.30;99.90;;;;;;5052302;28;20081;-61
2024/04/08 02:39:12;;;;;;;20.33;3.65;;;10.30;99.90;;;;;;5052292;28;20053;-61
2024/04/08 02:41:38;;;;;;;15.10;2.70;;;10.30;99.90;;;;;;5052508;28;20540;-61
2024/04/08 02:44:03;;;;;;;19.20;3.05;;;10.30;99.90;;;;;;5052298;28;20599;-61
2024/04/08 02:46:29;;;;;;;17.48;3.42;;;10.30;99.90;;;;;;5052422;28;20037;-61
2024/04/08 02:48:55;;;;;;;15.52;3.30;;;10.30;99.90;;;;;;5069468;28;20061;-61
2024/04/08 02:51:21;;;;;;;16.17;3.20;;;10.30;99.90;;;;;;5052613;28;20437;-64
2024/04/08 02:53:46;;;;;;;17.10;3.55;;;10.30;99.90;;;;;;5052174;28;20041;-65
2024/04/08 02:56:12;;;;;;;18.45;2.78;;;10.30;99.90;;;;;;5052150;28;20147;-66
2024/04/08 02:58:39;;;;;;;26.52;3.20;;;10.20;99.90;;;;;;5052361;28;20042;-64
2024/04/08 03:01:04;;;;;;;15.30;3.45;;;10.20;99.90;;;;;;5051979;28;20040;-66
2024/04/08 03:03:30;;;;;;;16.15;3.40;;;10.20;99.90;;;;;;5052153;28;20045;-64
2024/04/08 03:05:56;;;;;;;24.40;3.45;;;10.20;99.90;;;;;;5052373;28;20120;-65
2024/04/08 03:08:22;;;;;;;19.40;3.80;;;10.20;99.90;;;;;;5068836;28;20033;-64
2024/04/08 03:10:48;;;;;;;19.50;3.33;;;10.20;99.90;;;;;;5051772;28;20037;-65
2024/04/08 03:13:13;;;;;;;18.80;3.28;;;10.10;99.90;;;;;;5052236;28;20462;-64
2024/04/08 03:15:39;;;;;;;16.95;3.28;;;10.10;99.90;;;;;;5051840;28;20049;-65
2024/04/08 03:18:06;;;;;;;20.33;3.47;;;10.10;99.90;;;;;;5056053;28;20056;-65
2024/04/08 03:20:32;;;;;;;16.92;3.15;;;10.10;99.90;;;;;;5056098;28;20059;-65
2024/04/08 03:22:58;;;;;;;19.30;3.67;;;10.10;99.90;;;;;;5072493;28;20061;-65
2024/04/08 03:25:23;;;;;;;13.30;2.70;;;10.00;99.90;;;;;;5055550;28;20029;-65
2024/04/08 03:27:51;;;;;;;15.65;3.25;;;10.00;99.90;;;;;;5055790;28;20454;-65
2024/04/08 03:30:16;;;;;;;17.90;3.25;;;10.10;99.90;;;;;;5055945;28;20462;-65
2024/04/08 03:32:42;;;;;;;15.32;2.83;;;10.10;99.90;;;;;;5055710;28;20041;-65
2024/04/08 03:35:08;;;;;;;14.65;2.85;;;10.10;99.90;;;;;;5055181;28;20036;-65
2024/04/08 03:37:34;;;;;;;21.10;3.00;;;10.10;99.90;;;;;;5055477;28;20098;-65
2024/04/08 03:40:00;;;;;;;22.73;3.80;;;10.20;99.90;;;;;;5071924;28;20041;-61
2024/04/08 03:42:25;;;;;;;12.70;2.63;;;10.20;99.90;;;;;;5055163;28;20068;-61
2024/04/08 03:44:52;;;;;;;18.65;3.28;;;10.20;99.90;;;;;;5055487;28;20064;-61
2024/04/08 03:47:18;;;;;;;17.27;3.05;;;10.20;99.90;;;;;;5038442;28;20486;-62
2024/04/08 03:49:45;;;;;;;16.42;2.63;;;10.20;99.90;;;;;;5055446;28;20041;-61
2024/04/08 03:52:11;;;;;;;23.23;3.80;;;10.20;99.90;;;;;;5055284;28;20371;-61
2024/04/08 03:54:38;;;;;;;18.42;3.38;;;10.20;99.90;;;;;;5054959;28;20390;-69
2024/04/08 03:57:04;;;;;;;17.35;2.83;;;10.20;99.90;;;;;;5071260;28;20047;-69
2024/04/08 03:59:30;;;;;;;19.02;3.22;;;10.20;99.90;;;;;;5055499;28;20060;-69
2024/04/08 04:01:57;;;;;;;20.48;3.22;;;10.20;99.90;;;;;;5055060;28;20090;-61
2024/04/08 04:04:24;;;;;;;14.13;2.75;;;10.20;99.90;;;;;;5055244;28;20470;-61
2024/04/08 04:06:50;;;;;;;20.90;3.75;;;10.20;99.90;;;;;;5054942;28;20033;-61
2024/04/08 04:09:15;;;;;;;13.60;2.90;;;10.20;99.90;;;;;;5054957;28;20500;-61
2024/04/08 04:11:41;;;;;;;23.02;3.00;;;10.20;99.90;;;;;;5055027;28;20075;-61
2024/04/08 04:14:07;;;;;;;23.13;3.42;;;10.20;99.90;;;;;;5055064;28;20048;-61
2024/04/08 04:16:33;;;;;;;19.05;3.25;;;10.20;99.90;;;;;;5054526;28;20097;-61
2024/04/08 04:18:58;;;;;;;20.67;3.42;;;10.20;99.90;;;;;;5054767;28;20041;-61
2024/04/08 04:21:24;;;;;;;19.75;3.42;;;10.20;99.90;;;;;;5054679;28;20068;-62
2024/04/08 04:23:50;;;;;;;17.52;3.10;;;10.20;99.90;;;;;;5054695;28;20050;-62
2024/04/08 04:26:16;;;;;;;14.60;2.67;;;10.20;99.90;;;;;;5054440;28;20090;-61
2024/04/08 04:28:42;;;;;;;19.85;3.10;;;10.20;99.90;;;;;;5054030;28;20418;-61
2024/04/08 04:31:08;;;;;;;22.25;3.97;;;10.30;99.90;;;;;;5054670;28;20087;-61
2024/04/08 04:33:33;;;;;;;18.13;3.75;;;10.30;99.90;;;;;;5054458;28;20060;-61
2024/04/08 04:35:59;;;;;;;20.35;2.80;;;10.30;99.90;;;;;;5054309;28;20494;-61
2024/04/08 04:38:25;;;;;;;19.10;3.33;;;10.30;99.90;;;;;;5054153;28;20036;-62
2024/04/08 04:40:51;;;;;;;23.40;3.53;;;10.30;99.90;;;;;;5054887;28;20405;-61
2024/04/08 04:43:17;;;;;;;13.10;2.88;;;10.30;99.90;;;;;;5054307;28;20029;-61
2024/04/08 04:45:43;;;;;;;21.23;3.58;;;10.30;99.90;;;;;;5054545;28;20413;-62
2024/04/08 04:48:08;;;;;;;16.98;3.13;;;10.30;99.90;;;;;;5054262;28;20040;-62
2024/04/08 04:50:34;;;;;;;18.23;3.58;;;10.30;99.90;;;;;;5054047;28;20486;-62
2024/04/08 04:53:00;;;;;;;15.00;3.03;;;10.30;99.90;;;;;;5054390;28;20381;-62
2024/04/08 04:55:26;;;;;;;20.83;3.45;;;10.30;99.90;;;;;;5053965;28;20049;-63
2024/04/08 04:57:51;;;;;;;17.58;3.97;;;10.20;99.90;;;;;;5054390;28;20041;-63
2024/04/08 05:00:17;;;;;;;16.33;3.30;;;10.20;99.90;;;;;;5054104;28;20040;-62
2024/04/08 05:02:43;;;;;;;23.13;2.90;;;10.20;99.90;;;;;;5053910;28;20437;-65
2024/04/08 05:05:09;;;;;;;16.58;3.17;;;10.20;99.90;;;;;;5053385;28;20041;-64
2024/04/08 05:07:35;;;;;;;16.48;3.13;;;10.10;99.90;;;;;;5054000;28;20094;-65
2024/04/08 05:10:01;;;;;;;17.08;3.10;;;10.10;99.90;;;;;;5053448;28;20063;-63
2024/04/08 05:12:26;;;;;;;23.88;3.53;;;10.10;99.90;;;;;;5053675;28;20502;-63
2024/04/08 05:14:52;;;;;;;19.25;2.95;;;10.10;99.90;;;;;;5054095;28;20394;-65
2024/04/08 05:17:18;;;;;;;16.25;3.20;;;10.10;99.90;;;;;;5053254;28;20053;-65
2024/04/08 05:19:44;;;;;;;15.27;3.17;;;10.10;99.90;;;;;;5053685;28;20081;-65
2024/04/08 05:22:16;;;;;;;18.27;3.92;;;10.00;99.90;;;;;;5053174;28;20044;-66
2024/04/08 05:24:42;;;;;;;14.18;2.80;;;10.00;99.90;;;;;;5053520;28;20068;-65
2024/04/08 05:27:07;;;;;;;20.92;3.30;;;9.90;99.90;;;;;;5053508;28;20183;-66
2024/04/08 05:29:33;;;;;;;23.23;3.25;;;9.90;99.90;;;;;;5053617;28;20052;-62
2024/04/08 05:31:59;;;;;;;18.42;2.63;;;9.90;99.90;;;;;;5053265;28;20489;-63
2024/04/08 05:34:25;;;;;;;18.30;4.25;;;9.90;99.90;;;;;;5052686;28;20528;-64
2024/04/08 05:36:50;;;;;;;16.48;3.40;;;9.90;99.90;;;;;;5053015;28;20044;-65
2024/04/08 05:39:16;;;;;;;21.60;2.92;;;9.90;99.90;;;;;;5052945;28;20084;-68
2024/04/08 05:41:42;;;;;;;17.40;2.85;;;9.80;99.90;;;;;;5053114;28;20134;-69
2024/04/08 05:44:07;;;;;;;19.58;3.08;;;9.80;99.90;;;;;;5053065;28;20040;-69
2024/04/08 05:46:33;;;;;;;22.92;3.70;;;9.80;99.90;;;;;;5053131;28;20175;-69
2024/04/08 05:48:59;;;;;;;22.45;3.35;;;9.80;99.90;;;;;;5053334;28;20052;-69
2024/04/08 05:51:26;;;;;;;22.85;3.65;;;9.80;99.90;;;;;;5052641;28;20124;-69
2024/04/08 05:53:51;;;;;;;25.33;3.83;;;9.90;99.90;;;;;;5053085;28;20074;-69
2024/04/08 05:56:17;;;;;;;22.20;3.28;;;9.90;99.90;;;;;;5052954;28;20391;-62
2024/04/08 05:58:43;;;;;;;19.67;3.33;;;9.90;99.90;;;;;;5052952;28;20417;-62
2024/04/08 06:01:09;;;;;;;21.88;4.25;;;9.90;99.90;;;;;;5053256;28;20043;-63
2024/04/08 06:03:35;;;;;;;18.92;3.38;;;10.00;99.90;;;;;;5052502;28;20506;-63
2024/04/08 06:06:01;;;;;;;18.75;3.50;;;10.00;99.90;;;;;;5052475;28;20126;-63
2024/04/08 06:08:27;;;;;;;17.98;3.45;;;10.00;99.90;;;;;;5052625;28;20507;-63
2024/04/08 06:10:53;;;;;;;20.02;3.40;;;10.00;99.90;;;;;;5069479;28;20040;-63
2024/04/08 06:13:19;;;;;;;19.80;3.35;;;10.10;99.90;;;;;;5069239;28;20515;-61
2024/04/08 06:15:44;;;;;;;18.42;3.15;;;10.10;99.90;;;;;;5052829;28;20075;-69
2024/04/08 06:18:10;;;;;;;23.95;3.67;;;10.20;99.90;;;;;;5035867;28;20053;-68
2024/04/08 06:20:39;;;;;;;21.58;3.75;;;10.20;99.90;;;;;;5036470;28;20049;-61
2024/04/08 06:24:15;;;;;;;;;;;10.30;99.90;;;;;;5584231;25;20338;-62
2024/04/08 06:26:42;;;;;;;18.45;3.25;;;10.40;99.90;;;;;;5583755;25;19923;-65
2024/04/08 06:29:09;;;;;;;17.17;2.88;;;10.40;99.90;;;;;;5583640;25;20019;-64
2024/04/08 06:31:36;;;;;;;19.25;2.90;;;10.50;99.90;;;;;;5583624;25;20036;-61
2024/04/08 06:34:03;;;;;;;16.90;3.35;;;10.50;99.90;;;;;;5582309;25;20004;-65
2024/04/08 06:36:30;;;;;;;17.63;3.17;;;10.50;99.90;;;;;;5528761;25;20465;-63
2024/04/08 06:38:57;;;;;;;18.65;3.72;;;10.50;99.90;;;;;;5520657;25;20403;-65
2024/04/08 06:41:24;;;;;;;18.33;3.22;;;10.50;99.90;;;;;;5513798;25;20001;-63
2024/04/08 06:43:51;;;;;;;18.10;2.97;;;10.60;99.90;;;;;;5523054;25;20026;-64
2024/04/08 06:46:17;;;;;;;19.05;3.88;;;10.70;99.90;;;;;;5512908;25;20021;-64
2024/04/08 06:48:44;;;;;;;17.15;2.97;;;10.70;99.90;;;;;;5513397;25;19998;-68
2024/04/08 06:51:11;;;;;;;14.27;3.03;;;10.70;99.90;;;;;;5546605;25;19997;-68
2024/04/08 06:53:38;;;;;;;18.33;3.70;;;10.70;99.90;;;;;;5546492;25;20097;-61
2024/04/08 06:56:05;;;;;;;16.77;2.78;;;10.70;99.90;;;;;;5545574;25;20005;-67
2024/04/08 06:58:32;;;;;;;17.10;3.30;;;10.70;99.90;;;;;;5482400;25;20012;-63
2024/04/08 07:00:59;;;;;;;17.10;3.08;;;10.70;99.90;;;;;;5545654;25;20016;-68
2024/04/08 07:03:26;;;;;;;19.98;3.47;;;10.70;99.90;;;;;;5545792;25;20001;-67
2024/04/08 07:05:53;;;;;;;16.27;3.63;;;10.80;99.90;;;;;;5543090;25;20060;-61
2024/04/08 07:08:19;;;;;;;17.00;3.38;;;10.80;99.90;;;;;;5544119;25;20005;-65
2024/04/08 07:10:46;;;;;;;17.48;3.50;;;10.80;99.90;;;;;;5543862;25;20020;-62
2024/04/08 07:13:13;;;;;;;19.63;3.70;;;10.80;99.90;;;;;;5512352;25;20001;-68
2024/04/08 07:15:40;;;;;;;16.40;3.65;;;10.90;99.90;;;;;;5512606;25;20332;-61
2024/04/08 07:18:09;;;;;;;20.95;3.35;;;10.90;99.90;;;;;;5544983;25;20016;-63
2024/04/08 07:20:38;;;;;;;18.98;3.08;;;11.00;99.90;;;;;;5545129;25;20001;-67
2024/04/08 07:23:05;;;;;;;12.68;3.20;;;11.00;99.90;;;;;;5544857;25;20005;-63
2024/04/08 07:25:32;;;;;;;24.83;3.80;;;11.00;99.90;;;;;;5512216;25;19998;-66
2024/04/08 07:28:00;;;;;;;17.48;3.17;;;11.00;99.90;;;;;;5544745;25;20450;-63
2024/04/08 07:30:27;;;;;;;20.15;3.60;;;11.10;99.90;;;;;;5512510;25;20334;-61
2024/04/08 07:32:55;;;;;;;14.98;2.85;;;11.20;99.90;;;;;;5544734;25;20034;-61
2024/04/08 07:35:22;;;;;;;17.77;3.28;;;11.20;99.90;;;;;;5528929;25;20089;-62
2024/04/08 07:37:53;;;;;;;14.65;2.90;;;11.30;99.90;;;;;;5496204;26;20022;-62
2024/04/08 07:40:20;;;;;;;10.82;2.72;;;11.40;99.90;;;;;;5529370;26;20458;-60
2024/04/08 07:42:47;;;;;;;17.02;3.28;;;11.40;99.90;;;;;;5523807;25;20001;-63
2024/04/08 07:45:14;;;;;;;19.23;3.80;;;11.50;99.90;;;;;;5528293;26;20020;-61
2024/04/08 07:47:41;;;;;;;16.88;3.55;;;11.50;99.90;;;;;;5528540;25;19993;-60
2024/04/08 07:50:08;;;;;;;21.90;3.85;;;11.60;99.90;;;;;;5528464;26;20037;-61
2024/04/08 07:52:37;;;;;;;17.45;3.00;;;11.70;99.90;;;;;;5496069;25;19993;-62
2024/04/08 07:55:04;;;;;;;18.63;3.90;;;11.80;99.90;;;;;;5528265;26;20013;-62
2024/04/08 07:57:31;;;;;;;19.30;3.95;;;11.90;99.90;;;;;;5528456;25;20012;-62
2024/04/08 07:59:57;;;;;;;15.15;3.63;;;12.00;99.90;;;;;;5528511;26;20328;-62
2024/04/08 08:02:25;;;;;;;15.80;3.55;;;12.10;99.90;;;;;;5494535;26;20001;-62
2024/04/08 08:04:51;;;;;;;16.92;2.63;;;12.20;99.90;;;;;;5528006;25;20050;-62
2024/04/08 08:07:18;;;;;;;19.85;3.63;;;12.20;99.90;;;;;;5530274;25;20469;-60
2024/04/08 08:09:45;;;;;;;16.77;3.33;;;12.30;99.90;;;;;;5562730;25;20480;-61
2024/04/08 08:12:12;;;;;;;14.45;2.70;;;12.30;99.90;;;;;;5565669;25;20005;-63
2024/04/08 08:14:39;;;;;;;17.98;3.75;;;12.40;99.90;;;;;;5559260;25;20029;-67
2024/04/08 08:17:06;;;;;;;16.13;3.25;;;12.40;99.90;;;;;;5528040;26;20069;-61
2024/04/08 08:19:33;;;;;;;13.77;3.17;;;12.40;99.90;;;;;;5528628;25;20013;-62
2024/04/08 08:22:01;;;;;;;15.18;3.38;;;12.50;99.90;;;;;;5528451;25;19994;-62
2024/04/08 08:24:28;;;;;;;12.52;3.30;;;12.70;99.90;;;;;;5527904;25;20037;-66
2024/04/08 08:26:56;;;;;;;15.95;2.80;;;12.70;99.90;;;;;;5495940;26;20001;-67
2024/04/08 08:29:23;;;;;;;14.85;2.90;;;12.80;99.90;;;;;;5528460;25;20038;-64
2024/04/08 08:31:50;;;;;;;17.08;3.72;;;12.80;99.90;;;;;;5528170;26;20030;-66
2024/04/08 08:34:17;;;;;;;13.20;2.85;;;12.90;99.90;;;;;;5528127;25;20008;-68
2024/04/08 08:36:46;;;;;;;20.65;3.05;;;13.00;99.90;;;;;;5527751;26;20072;-64
2024/04/08 08:39:12;;;;;;;20.83;4.47;;;13.10;99.90;;;;;;5528388;25;20351;-63
2024/04/08 08:41:39;;;;;;;15.02;2.88;;;13.20;99.90;;;;;;5527683;26;20442;-62
2024/04/08 08:44:06;;;;;;;15.20;3.20;;;13.30;99.90;;;;;;5527512;25;20002;-62
2024/04/08 08:46:33;;;;;;;16.73;3.13;;;13.30;99.90;;;;;;5502910;25;20077;-70
2024/04/08 08:49:01;;;;;;;12.50;2.58;;;13.40;99.90;;;;;;5565144;25;20155;-70
2024/04/08 08:51:28;;;;;;;18.63;3.80;;;13.40;99.90;;;;;;5564721;25;20009;-65
2024/04/08 08:53:54;;;;;;;15.30;2.90;;;13.50;99.90;;;;;;5565663;25;20076;-65
2024/04/08 08:56:21;;;;;;;13.50;3.40;;;13.50;99.90;;;;;;5565196;25;20040;-62
2024/04/08 08:58:50;;;;;;;11.73;2.88;;;13.60;99.90;;;;;;5506509;26;20001;-62
2024/04/08 09:01:17;;;;;;;14.27;3.10;;;13.70;99.90;;;;;;5527923;26;20003;-63
2024/04/08 09:03:44;;;;;;;12.45;3.60;;;13.70;99.90;;;;;;5527697;26;20012;-61
2024/04/08 09:06:11;;;;;;;14.80;2.72;;;13.80;99.90;;;;;;5527669;26;20002;-61
2024/04/08 09:08:38;;;;;;;18.98;3.25;;;13.90;99.90;;;;;;5527934;26;20004;-62
2024/04/08 09:11:05;;;;;;;18.13;2.90;;;14.00;99.90;;;;;;5527647;26;20046;-63
2024/04/08 09:13:32;;;;;;;12.40;2.88;;;14.00;99.90;;;;;;5495541;26;20013;-61
2024/04/08 09:15:59;;;;;;;12.63;2.70;;;14.10;99.90;;;;;;5494489;26;20013;-63
2024/04/08 09:18:26;;;;;;;15.00;3.30;;;14.10;99.90;;;;;;5527632;26;19998;-60
2024/04/08 09:20:53;;;;;;;13.30;3.22;;;14.10;99.90;;;;;;5527728;26;20020;-66
2024/04/08 09:23:20;;;;;;;12.90;2.92;;;14.20;99.90;;;;;;5527567;26;20004;-62
2024/04/08 09:25:48;;;;;;;13.43;3.13;;;14.20;99.90;;;;;;5527245;26;20133;-62
2024/04/08 09:28:15;;;;;;;16.42;3.33;;;14.30;99.90;;;;;;5527446;25;20002;-63
2024/04/08 09:30:44;;;;;;;15.32;3.10;;;14.30;99.90;;;;;;5527678;26;20029;-64
2024/04/08 09:33:11;;;;;;;12.93;3.00;;;14.50;99.90;;;;;;5527572;26;20435;-63
2024/04/08 09:35:39;;;;;;;17.65;3.15;;;14.50;99.90;;;;;;5527815;26;20375;-64
2024/04/08 09:38:07;;;;;;;16.63;3.08;;;14.50;99.90;;;;;;5527521;26;20002;-66
2024/04/08 09:40:34;;;;;;;11.73;2.88;;;14.50;99.90;;;;;;5527044;26;20077;-66
2024/04/08 09:43:00;;;;;;;18.13;3.72;;;14.50;99.90;;;;;;5527141;26;20073;-66
2024/04/08 09:45:27;;;;;;;15.90;3.60;;;14.60;99.90;;;;;;5494394;26;20009;-62
2024/04/08 09:47:54;;;;;;;12.15;3.17;;;14.60;99.90;;;;;;5526660;26;20458;-61
2024/04/08 09:50:21;;;;;;;15.48;3.25;;;14.60;99.90;;;;;;5526290;26;20032;-63
2024/04/08 09:52:48;;;;;;;14.45;3.58;;;14.70;99.90;;;;;;5526937;26;20002;-67
2024/04/08 09:55:15;;;;;;;18.33;4.00;;;14.80;99.90;;;;;;5527133;26;19997;-66
2024/04/08 09:57:42;;;;;;;12.45;2.97;;;14.90;99.90;;;;;;5526085;26;20001;-66
2024/04/08 10:00:09;;;;;;;13.30;3.33;;;14.90;99.90;;;;;;5526695;26;20001;-66
2024/04/08 10:02:37;;;;;;;11.07;2.63;;;15.00;99.90;;;;;;5526732;26;20334;-66
2024/04/08 10:05:04;;;;;;;10.10;2.65;;;15.00;99.90;;;;;;5526768;26;20009;-67
2024/04/08 10:07:31;;;;;;;13.93;2.80;;;15.10;99.90;;;;;;5526535;26;20077;-66
2024/04/08 10:10:01;;;;;;;11.80;2.72;;;15.20;99.90;;;;;;5494262;26;19997;-66
2024/04/08 10:12:27;;;;;;;16.95;2.83;;;15.20;99.90;;;;;;5526533;26;20072;-61
2024/04/08 10:14:54;;;;;;;10.80;2.42;;;15.30;99.90;;;;;;5526387;26;19997;-61
2024/04/08 10:17:21;;;;;;;12.73;2.92;;;15.30;99.90;;;;;;5526291;26;20005;-59
2024/04/08 10:19:48;;;;;;;13.57;2.85;;;15.20;99.90;;;;;;5526280;26;20001;-66
2024/04/08 10:22:18;;;;;;;11.90;3.05;;;15.30;99.90;;;;;;5526372;26;20034;-59
2024/04/08 10:24:45;;;;;;;14.73;2.90;;;15.30;99.90;;;;;;5526238;26;20047;-59
2024/04/08 10:27:12;;;;;;;12.38;2.63;;;15.40;99.90;;;;;;5493663;25;20037;-60
2024/04/08 10:29:39;;;;;;;10.18;2.47;;;15.40;99.90;;;;;;5525912;26;20005;-60
2024/04/08 10:32:06;;;;;;;12.68;2.70;;;15.50;99.90;;;;;;5525878;26;20482;-65
2024/04/08 10:34:33;;;;;;;8.77;2.58;;;15.50;99.90;;;;;;5526142;26;20016;-62
2024/04/08 10:37:00;;;;;;;11.40;2.22;;;15.60;99.90;;;;;;5526372;26;20417;-62
2024/04/08 10:39:27;;;;;;;11.93;2.63;;;15.60;99.90;;;;;;5525870;26;20008;-62
2024/04/08 10:41:55;;;;;;;12.85;2.88;;;15.70;99.90;;;;;;5525688;26;20005;-63
2024/04/08 10:44:22;;;;;;;12.25;2.42;;;15.70;99.90;;;;;;5525778;26;20008;-63
2024/04/08 10:46:49;;;;;;;10.73;2.50;;;15.70;99.90;;;;;;5525821;26;20001;-66
2024/04/08 10:49:16;;;;;;;13.68;3.10;;;15.70;99.90;;;;;;5525935;26;20470;-66
2024/04/08 10:51:42;;;;;;;8.55;2.30;;;15.80;99.90;;;;;;5543315;25;20001;-66
2024/04/08 10:54:09;;;;;;;12.50;2.28;;;15.90;99.90;;;;;;5563271;25;19996;-66
2024/04/08 10:56:36;;;;;;;9.45;2.28;;;15.90;99.90;;;;;;5563494;25;20037;-65
2024/04/08 10:59:04;;;;;;;10.48;2.20;;;15.90;99.90;;;;;;5532660;25;20013;-63
2024/04/08 11:01:33;;;;;;;13.18;2.60;;;16.00;99.90;;;;;;5492690;26;20006;-66
2024/04/08 11:04:00;;;;;;;10.10;2.30;;;16.00;99.90;;;;;;5525044;26;20093;-60
2024/04/08 11:06:28;;;;;;;10.57;2.28;;;16.00;99.90;;;;;;5525540;26;20008;-60
2024/04/08 11:08:55;;;;;;;10.07;2.67;;;16.10;99.90;;;;;;5493438;26;20013;-63
2024/04/08 11:11:22;;;;;;;7.55;2.13;;;16.10;99.90;;;;;;5528790;26;20006;-61
2024/04/08 11:13:49;;;;;;;9.75;2.15;;;16.10;99.90;;;;;;5528928;26;20410;-66
2024/04/08 11:16:16;;;;;;;6.63;2.03;;;16.10;99.90;;;;;;5529752;25;20001;-62
2024/04/08 11:18:43;;;;;;;11.60;2.45;;;16.20;99.90;;;;;;5565832;25;20008;-60
2024/04/08 11:21:10;;;;;;;7.13;2.10;;;16.20;99.90;;;;;;5565717;25;20001;-62
2024/04/08 11:23:37;;;;;;;11.95;2.17;;;16.20;99.90;;;;;;5565563;25;20037;-64
2024/04/08 11:26:04;;;;;;;7.85;2.17;;;16.20;99.90;;;;;;5565979;25;20045;-65
2024/04/08 11:28:31;;;;;;;8.20;1.80;;;16.20;99.90;;;;;;5544160;25;20531;-63
2024/04/08 11:30:58;;;;;;;9.30;2.03;;;16.30;99.90;;;;;;5495930;26;20017;-60
2024/04/08 11:33:25;;;;;;;8.07;2.47;;;16.40;99.90;;;;;;5528847;26;20081;-60
2024/04/08 11:35:52;;;;;;;11.30;2.38;;;16.60;99.90;;;;;;5496250;26;20006;-60
2024/04/08 11:38:22;;;;;;;9.30;2.05;;;16.70;99.90;;;;;;5528930;26;20009;-62
2024/04/08 11:41:02;;;;;;;8.90;2.30;;;16.90;99.90;;;;;;5528395;26;20005;-62
2024/04/08 11:43:33;;;;;;;9.20;2.33;;;17.00;99.90;;;;;;5528714;26;20001;-62
2024/04/08 11:46:00;;;;;;;7.40;2.00;;;17.10;99.90;;;;;;5528561;26;20006;-62
2024/04/08 11:48:30;;;;;;;10.43;2.30;;;17.30;99.90;;;;;;5528863;26;20077;-62
2024/04/08 11:50:58;;;;;;;7.75;2.15;;;17.30;99.90;;;;;;5528195;25;20012;-62
2024/04/08 11:53:25;;;;;;;7.10;1.80;;;17.40;99.90;;;;;;5532668;25;20361;-62
2024/04/08 11:55:52;;;;;;;6.85;2.28;;;17.40;99.90;;;;;;5527173;26;20086;-60
2024/04/08 11:58:19;;;;;;;10.55;2.22;;;17.40;99.90;;;;;;5528267;25;20002;-66
2024/04/08 12:00:46;;;;;;;11.05;2.58;;;17.40;99.90;;;;;;5528422;26;20462;-66
2024/04/08 12:03:13;;;;;;;8.20;2.45;;;17.40;99.90;;;;;;5528380;26;20034;-66
2024/04/08 12:05:40;;;;;;;11.63;2.38;;;17.40;99.90;;;;;;5496037;26;20002;-67
2024/04/08 12:08:07;;;;;;;7.70;2.08;;;17.30;99.90;;;;;;5528461;26;20071;-67
2024/04/08 12:10:34;;;;;;;8.77;2.30;;;17.20;99.90;;;;;;5528493;26;20029;-67
2024/04/08 12:13:01;;;;;;;7.50;2.05;;;17.20;99.90;;;;;;5528438;26;20002;-67
2024/04/08 12:15:28;;;;;;;8.38;2.00;;;17.20;99.90;;;;;;5528000;26;20050;-67
2024/04/08 12:17:55;;;;;;;9.95;2.03;;;17.20;99.90;;;;;;5528152;26;20014;-64
2024/04/08 12:20:23;;;;;;;8.18;2.08;;;17.20;99.90;;;;;;5527680;26;20568;-67
2024/04/08 12:22:50;;;;;;;7.00;1.60;;;17.20;99.90;;;;;;5527929;26;19998;-67
2024/04/08 12:25:16;;;;;;;6.55;1.70;;;17.20;99.80;;;;;;5528291;26;20045;-68
2024/04/08 12:27:43;;;;;;;8.30;1.98;;;17.30;99.90;;;;;;5527809;26;20008;-64
2024/04/08 12:30:10;;;;;;;9.70;2.10;;;17.30;99.90;;;;;;5527913;26;20001;-64
2024/04/08 12:32:38;;;;;;;10.98;2.05;;;17.40;99.90;;;;;;5528216;26;20347;-62
2024/04/08 12:35:05;;;;;;;7.97;2.30;;;17.50;99.90;;;;;;5528025;26;20017;-65